sensor_id;sensor_type;location;lat;lon;timestamp;P1;durP1;ratioP1;P2;durP2;ratioP2
36195;SDS011;22237;51.974;4.616;2023-04-25T00:00:14;9.75;;;2.33;;
36195;SDS011;22237;51.974;4.616;2023-04-25T00:02:39;9.70;;;2.28;;
36195;SDS011;22237;51.974;4.616;2023-04-25T00:05:04;14.93;;;1.92;;
36195;SDS011;22237;51.974;4.616;2023-04-25T00:07:30;11.27;;;2.08;;
36195;SDS011;22237;51.974;4.616;2023-04-25T00:09:56;16.10;;;2.28;;
36195;SDS011;22237;51.974;4.616;2023-04-25T00:12:21;9.00;;;2.50;;
36195;SDS011;22237;51.974;4.616;2023-04-25T00:14:48;8.30;;;2.55;;
36195;SDS011;22237;51.974;4.616;2023-04-25T00:17:15;6.32;;;1.90;;
36195;SDS011;22237;51.974;4.616;2023-04-25T00:19:41;3.60;;;1.67;;
36195;SDS011;22237;51.974;4.616;2023-04-25T00:22:06;13.40;;;2.63;;
36195;SDS011;22237;51.974;4.616;2023-04-25T00:24:32;13.52;;;2.42;;
36195;SDS011;22237;51.974;4.616;2023-04-25T00:26:57;8.15;;;1.77;;
36195;SDS011;22237;51.974;4.616;2023-04-25T00:29:22;13.23;;;2.58;;
36195;SDS011;22237;51.974;4.616;2023-04-25T00:31:47;10.60;;;2.00;;
36195;SDS011;22237;51.974;4.616;2023-04-25T00:34:13;15.05;;;2.45;;
36195;SDS011;22237;51.974;4.616;2023-04-25T00:36:38;6.37;;;1.97;;
36195;SDS011;22237;51.974;4.616;2023-04-25T00:39:03;4.63;;;1.83;;
36195;SDS011;22237;51.974;4.616;2023-04-25T00:41:29;12.30;;;2.67;;
36195;SDS011;22237;51.974;4.616;2023-04-25T00:43:55;11.02;;;2.30;;
36195;SDS011;22237;51.974;4.616;2023-04-25T00:46:21;4.18;;;1.58;;
36195;SDS011;22237;51.974;4.616;2023-04-25T00:48:46;9.50;;;1.73;;
36195;SDS011;22237;51.974;4.616;2023-04-25T00:51:13;18.83;;;2.47;;
36195;SDS011;22237;51.974;4.616;2023-04-25T00:53:39;4.50;;;1.58;;
36195;SDS011;22237;51.974;4.616;2023-04-25T00:56:05;10.85;;;2.33;;
36195;SDS011;22237;51.974;4.616;2023-04-25T00:58:30;9.45;;;2.25;;
36195;SDS011;22237;51.974;4.616;2023-04-25T01:00:56;7.80;;;2.03;;
36195;SDS011;22237;51.974;4.616;2023-04-25T01:03:22;3.85;;;1.45;;
36195;SDS011;22237;51.974;4.616;2023-04-25T01:05:47;14.52;;;2.88;;
36195;SDS011;22237;51.974;4.616;2023-04-25T01:08:13;10.18;;;2.13;;
36195;SDS011;22237;51.974;4.616;2023-04-25T01:10:39;7.65;;;2.33;;
36195;SDS011;22237;51.974;4.616;2023-04-25T01:13:04;11.03;;;2.37;;
36195;SDS011;22237;51.974;4.616;2023-04-25T01:15:30;6.97;;;1.77;;
36195;SDS011;22237;51.974;4.616;2023-04-25T01:17:55;7.30;;;2.28;;
36195;SDS011;22237;51.974;4.616;2023-04-25T01:20:20;6.20;;;1.52;;
36195;SDS011;22237;51.974;4.616;2023-04-25T01:22:46;4.97;;;1.90;;
36195;SDS011;22237;51.974;4.616;2023-04-25T01:25:11;10.60;;;2.47;;
36195;SDS011;22237;51.974;4.616;2023-04-25T01:27:36;7.95;;;1.63;;
36195;SDS011;22237;51.974;4.616;2023-04-25T01:30:02;5.43;;;1.90;;
36195;SDS011;22237;51.974;4.616;2023-04-25T01:32:28;14.50;;;2.15;;
36195;SDS011;22237;51.974;4.616;2023-04-25T01:34:54;10.88;;;2.13;;
36195;SDS011;22237;51.974;4.616;2023-04-25T01:37:19;5.63;;;2.00;;
36195;SDS011;22237;51.974;4.616;2023-04-25T01:39:45;6.30;;;1.55;;
36195;SDS011;22237;51.974;4.616;2023-04-25T01:42:10;8.02;;;1.85;;
36195;SDS011;22237;51.974;4.616;2023-04-25T01:44:35;5.40;;;1.48;;
36195;SDS011;22237;51.974;4.616;2023-04-25T01:47:00;6.72;;;1.95;;
36195;SDS011;22237;51.974;4.616;2023-04-25T01:49:26;9.00;;;2.35;;
36195;SDS011;22237;51.974;4.616;2023-04-25T01:51:51;9.55;;;2.28;;
36195;SDS011;22237;51.974;4.616;2023-04-25T01:54:16;7.37;;;1.77;;
36195;SDS011;22237;51.974;4.616;2023-04-25T01:56:41;7.47;;;1.92;;
36195;SDS011;22237;51.974;4.616;2023-04-25T01:59:07;9.63;;;1.92;;
36195;SDS011;22237;51.974;4.616;2023-04-25T02:01:32;4.22;;;2.00;;
36195;SDS011;22237;51.974;4.616;2023-04-25T02:03:57;10.77;;;2.30;;
36195;SDS011;22237;51.974;4.616;2023-04-25T02:06:22;9.98;;;1.88;;
36195;SDS011;22237;51.974;4.616;2023-04-25T02:08:48;10.82;;;2.40;;
36195;SDS011;22237;51.974;4.616;2023-04-25T02:11:13;6.57;;;1.45;;
36195;SDS011;22237;51.974;4.616;2023-04-25T02:13:38;13.93;;;1.80;;
36195;SDS011;22237;51.974;4.616;2023-04-25T02:16:03;16.15;;;1.77;;
36195;SDS011;22237;51.974;4.616;2023-04-25T02:18:28;7.43;;;1.60;;
36195;SDS011;22237;51.974;4.616;2023-04-25T02:20:54;7.60;;;2.58;;
36195;SDS011;22237;51.974;4.616;2023-04-25T02:23:19;6.65;;;1.60;;
36195;SDS011;22237;51.974;4.616;2023-04-25T02:25:44;5.68;;;1.30;;
36195;SDS011;22237;51.974;4.616;2023-04-25T02:28:10;7.88;;;1.70;;
36195;SDS011;22237;51.974;4.616;2023-04-25T02:30:35;9.88;;;1.95;;
36195;SDS011;22237;51.974;4.616;2023-04-25T02:33:01;6.55;;;1.60;;
36195;SDS011;22237;51.974;4.616;2023-04-25T02:35:26;7.97;;;1.42;;
36195;SDS011;22237;51.974;4.616;2023-04-25T02:37:51;12.43;;;2.63;;
36195;SDS011;22237;51.974;4.616;2023-04-25T02:40:16;11.40;;;2.40;;
36195;SDS011;22237;51.974;4.616;2023-04-25T02:42:41;5.80;;;1.10;;
36195;SDS011;22237;51.974;4.616;2023-04-25T02:45:07;7.60;;;2.15;;
36195;SDS011;22237;51.974;4.616;2023-04-25T02:47:32;6.70;;;2.00;;
36195;SDS011;22237;51.974;4.616;2023-04-25T02:49:57;5.88;;;1.70;;
36195;SDS011;22237;51.974;4.616;2023-04-25T02:52:23;4.80;;;1.45;;
36195;SDS011;22237;51.974;4.616;2023-04-25T02:54:48;2.47;;;1.40;;
36195;SDS011;22237;51.974;4.616;2023-04-25T02:57:13;4.32;;;1.15;;
36195;SDS011;22237;51.974;4.616;2023-04-25T02:59:38;7.43;;;1.42;;
36195;SDS011;22237;51.974;4.616;2023-04-25T03:02:04;6.95;;;1.50;;
36195;SDS011;22237;51.974;4.616;2023-04-25T03:04:29;4.97;;;1.60;;
36195;SDS011;22237;51.974;4.616;2023-04-25T03:06:54;7.15;;;1.83;;
36195;SDS011;22237;51.974;4.616;2023-04-25T03:09:20;6.85;;;1.55;;
36195;SDS011;22237;51.974;4.616;2023-04-25T03:11:45;2.60;;;1.35;;
36195;SDS011;22237;51.974;4.616;2023-04-25T03:14:10;15.07;;;2.08;;
36195;SDS011;22237;51.974;4.616;2023-04-25T03:16:36;8.82;;;1.83;;
36195;SDS011;22237;51.974;4.616;2023-04-25T03:19:01;2.75;;;1.48;;
36195;SDS011;22237;51.974;4.616;2023-04-25T03:21:27;6.07;;;1.50;;
36195;SDS011;22237;51.974;4.616;2023-04-25T03:23:52;8.40;;;1.35;;
36195;SDS011;22237;51.974;4.616;2023-04-25T03:26:17;5.53;;;1.88;;
36195;SDS011;22237;51.974;4.616;2023-04-25T03:28:43;6.38;;;1.63;;
36195;SDS011;22237;51.974;4.616;2023-04-25T03:31:08;5.87;;;1.70;;
36195;SDS011;22237;51.974;4.616;2023-04-25T03:33:33;9.05;;;1.77;;
36195;SDS011;22237;51.974;4.616;2023-04-25T03:35:58;5.47;;;0.90;;
36195;SDS011;22237;51.974;4.616;2023-04-25T03:38:23;7.57;;;1.00;;
36195;SDS011;22237;51.974;4.616;2023-04-25T03:40:49;5.95;;;1.38;;
36195;SDS011;22237;51.974;4.616;2023-04-25T03:43:15;7.60;;;1.52;;
36195;SDS011;22237;51.974;4.616;2023-04-25T03:45:41;16.63;;;2.15;;
36195;SDS011;22237;51.974;4.616;2023-04-25T03:48:06;7.03;;;1.43;;
36195;SDS011;22237;51.974;4.616;2023-04-25T03:50:31;2.58;;;1.20;;
36195;SDS011;22237;51.974;4.616;2023-04-25T03:52:56;5.05;;;1.35;;
36195;SDS011;22237;51.974;4.616;2023-04-25T03:55:21;6.65;;;1.40;;
36195;SDS011;22237;51.974;4.616;2023-04-25T03:57:47;3.30;;;1.00;;
36195;SDS011;22237;51.974;4.616;2023-04-25T04:00:12;5.65;;;1.65;;
36195;SDS011;22237;51.974;4.616;2023-04-25T04:02:38;4.75;;;1.13;;
36195;SDS011;22237;51.974;4.616;2023-04-25T04:05:03;18.40;;;1.98;;
36195;SDS011;22237;51.974;4.616;2023-04-25T04:07:29;0.75;;;0.75;;
36195;SDS011;22237;51.974;4.616;2023-04-25T04:09:54;7.88;;;1.67;;
36195;SDS011;22237;51.974;4.616;2023-04-25T04:12:19;9.32;;;1.52;;
36195;SDS011;22237;51.974;4.616;2023-04-25T04:14:45;7.77;;;1.83;;
36195;SDS011;22237;51.974;4.616;2023-04-25T04:17:10;7.73;;;1.40;;
36195;SDS011;22237;51.974;4.616;2023-04-25T04:19:35;9.95;;;1.55;;
36195;SDS011;22237;51.974;4.616;2023-04-25T04:22:01;14.30;;;1.48;;
36195;SDS011;22237;51.974;4.616;2023-04-25T04:24:26;2.80;;;1.05;;
36195;SDS011;22237;51.974;4.616;2023-04-25T04:26:51;1.67;;;0.97;;
36195;SDS011;22237;51.974;4.616;2023-04-25T04:29:17;8.20;;;1.80;;
36195;SDS011;22237;51.974;4.616;2023-04-25T04:31:47;5.63;;;1.90;;
36195;SDS011;22237;51.974;4.616;2023-04-25T04:34:12;7.20;;;1.10;;
36195;SDS011;22237;51.974;4.616;2023-04-25T04:36:37;9.98;;;1.42;;
36195;SDS011;22237;51.974;4.616;2023-04-25T04:39:05;5.53;;;1.85;;
36195;SDS011;22237;51.974;4.616;2023-04-25T04:41:30;4.03;;;1.42;;
36195;SDS011;22237;51.974;4.616;2023-04-25T04:43:55;8.75;;;1.30;;
36195;SDS011;22237;51.974;4.616;2023-04-25T04:46:21;4.38;;;1.27;;
36195;SDS011;22237;51.974;4.616;2023-04-25T04:48:46;9.32;;;1.73;;
36195;SDS011;22237;51.974;4.616;2023-04-25T04:51:12;3.83;;;1.42;;
36195;SDS011;22237;51.974;4.616;2023-04-25T04:53:37;5.10;;;1.08;;
36195;SDS011;22237;51.974;4.616;2023-04-25T04:56:02;4.10;;;1.23;;
36195;SDS011;22237;51.974;4.616;2023-04-25T04:58:27;6.43;;;1.70;;
36195;SDS011;22237;51.974;4.616;2023-04-25T05:00:54;6.20;;;2.22;;
36195;SDS011;22237;51.974;4.616;2023-04-25T05:03:20;9.65;;;1.50;;
36195;SDS011;22237;51.974;4.616;2023-04-25T05:05:45;5.65;;;1.45;;
36195;SDS011;22237;51.974;4.616;2023-04-25T05:08:10;4.97;;;1.65;;
36195;SDS011;22237;51.974;4.616;2023-04-25T05:10:36;4.72;;;1.30;;
36195;SDS011;22237;51.974;4.616;2023-04-25T05:13:01;3.28;;;1.60;;
36195;SDS011;22237;51.974;4.616;2023-04-25T05:15:26;2.25;;;1.05;;
36195;SDS011;22237;51.974;4.616;2023-04-25T05:17:51;2.60;;;0.93;;
36195;SDS011;22237;51.974;4.616;2023-04-25T05:20:16;10.23;;;1.30;;
36195;SDS011;22237;51.974;4.616;2023-04-25T05:22:43;11.70;;;1.67;;
36195;SDS011;22237;51.974;4.616;2023-04-25T05:25:09;7.82;;;1.40;;
36195;SDS011;22237;51.974;4.616;2023-04-25T05:27:34;7.63;;;1.75;;
36195;SDS011;22237;51.974;4.616;2023-04-25T05:29:59;7.88;;;1.63;;
36195;SDS011;22237;51.974;4.616;2023-04-25T05:32:25;6.27;;;1.83;;
36195;SDS011;22237;51.974;4.616;2023-04-25T05:34:50;8.07;;;2.35;;
36195;SDS011;22237;51.974;4.616;2023-04-25T05:37:15;6.45;;;1.42;;
36195;SDS011;22237;51.974;4.616;2023-04-25T05:39:41;8.30;;;1.67;;
36195;SDS011;22237;51.974;4.616;2023-04-25T05:42:06;6.67;;;1.17;;
36195;SDS011;22237;51.974;4.616;2023-04-25T05:44:31;6.45;;;1.73;;
36195;SDS011;22237;51.974;4.616;2023-04-25T05:46:56;10.60;;;1.65;;
36195;SDS011;22237;51.974;4.616;2023-04-25T05:49:21;10.13;;;1.50;;
36195;SDS011;22237;51.974;4.616;2023-04-25T05:51:47;7.90;;;1.50;;
36195;SDS011;22237;51.974;4.616;2023-04-25T05:54:12;13.40;;;1.93;;
36195;SDS011;22237;51.974;4.616;2023-04-25T05:56:37;1.43;;;1.10;;
36195;SDS011;22237;51.974;4.616;2023-04-25T05:59:02;5.30;;;1.50;;
36195;SDS011;22237;51.974;4.616;2023-04-25T06:01:28;8.52;;;1.73;;
36195;SDS011;22237;51.974;4.616;2023-04-25T06:03:53;2.37;;;1.03;;
36195;SDS011;22237;51.974;4.616;2023-04-25T06:06:18;3.77;;;1.27;;
36195;SDS011;22237;51.974;4.616;2023-04-25T06:08:44;6.05;;;1.52;;
36195;SDS011;22237;51.974;4.616;2023-04-25T06:11:09;3.75;;;1.27;;
36195;SDS011;22237;51.974;4.616;2023-04-25T06:13:35;3.73;;;1.00;;
36195;SDS011;22237;51.974;4.616;2023-04-25T06:16:00;6.63;;;0.90;;
36195;SDS011;22237;51.974;4.616;2023-04-25T06:18:25;3.30;;;0.98;;
36195;SDS011;22237;51.974;4.616;2023-04-25T06:20:50;2.72;;;0.70;;
36195;SDS011;22237;51.974;4.616;2023-04-25T06:23:15;1.67;;;0.90;;
36195;SDS011;22237;51.974;4.616;2023-04-25T06:25:41;0.70;;;0.70;;
36195;SDS011;22237;51.974;4.616;2023-04-25T06:28:06;7.53;;;0.70;;
36195;SDS011;22237;51.974;4.616;2023-04-25T06:30:31;2.20;;;0.90;;
36195;SDS011;22237;51.974;4.616;2023-04-25T06:32:56;3.83;;;0.70;;
36195;SDS011;22237;51.974;4.616;2023-04-25T06:35:21;2.10;;;0.77;;
36195;SDS011;22237;51.974;4.616;2023-04-25T06:37:47;6.22;;;1.08;;
36195;SDS011;22237;51.974;4.616;2023-04-25T06:40:12;5.78;;;1.67;;
36195;SDS011;22237;51.974;4.616;2023-04-25T06:42:37;7.80;;;1.38;;
36195;SDS011;22237;51.974;4.616;2023-04-25T06:45:02;2.70;;;1.20;;
36195;SDS011;22237;51.974;4.616;2023-04-25T06:47:30;2.95;;;0.98;;
36195;SDS011;22237;51.974;4.616;2023-04-25T06:49:55;5.18;;;1.20;;
36195;SDS011;22237;51.974;4.616;2023-04-25T06:52:21;6.53;;;1.05;;
36195;SDS011;22237;51.974;4.616;2023-04-25T06:54:46;6.32;;;1.35;;
36195;SDS011;22237;51.974;4.616;2023-04-25T06:57:11;4.55;;;1.08;;
36195;SDS011;22237;51.974;4.616;2023-04-25T06:59:36;6.03;;;0.70;;
36195;SDS011;22237;51.974;4.616;2023-04-25T07:02:02;1.05;;;0.77;;
36195;SDS011;22237;51.974;4.616;2023-04-25T07:04:28;5.78;;;1.38;;
36195;SDS011;22237;51.974;4.616;2023-04-25T07:06:53;8.60;;;1.37;;
36195;SDS011;22237;51.974;4.616;2023-04-25T07:09:19;7.10;;;1.15;;
36195;SDS011;22237;51.974;4.616;2023-04-25T07:11:45;6.68;;;1.52;;
36195;SDS011;22237;51.974;4.616;2023-04-25T07:14:10;2.28;;;0.60;;
36195;SDS011;22237;51.974;4.616;2023-04-25T07:16:35;7.28;;;1.30;;
36195;SDS011;22237;51.974;4.616;2023-04-25T07:19:00;3.58;;;1.10;;
36195;SDS011;22237;51.974;4.616;2023-04-25T07:21:26;1.38;;;0.90;;
36195;SDS011;22237;51.974;4.616;2023-04-25T07:23:51;4.75;;;0.95;;
36195;SDS011;22237;51.974;4.616;2023-04-25T07:26:16;1.75;;;0.98;;
36195;SDS011;22237;51.974;4.616;2023-04-25T07:28:41;1.43;;;0.53;;
36195;SDS011;22237;51.974;4.616;2023-04-25T07:31:07;4.43;;;1.08;;
36195;SDS011;22237;51.974;4.616;2023-04-25T07:33:32;5.43;;;1.40;;
36195;SDS011;22237;51.974;4.616;2023-04-25T07:35:58;6.60;;;1.10;;
36195;SDS011;22237;51.974;4.616;2023-04-25T07:38:23;6.50;;;1.13;;
36195;SDS011;22237;51.974;4.616;2023-04-25T07:40:48;2.97;;;1.65;;
36195;SDS011;22237;51.974;4.616;2023-04-25T07:43:13;6.18;;;1.33;;
36195;SDS011;22237;51.974;4.616;2023-04-25T07:45:41;5.55;;;1.17;;
36195;SDS011;22237;51.974;4.616;2023-04-25T07:48:07;3.20;;;0.80;;
36195;SDS011;22237;51.974;4.616;2023-04-25T07:50:32;5.93;;;1.10;;
36195;SDS011;22237;51.974;4.616;2023-04-25T07:52:57;5.23;;;0.80;;
36195;SDS011;22237;51.974;4.616;2023-04-25T07:55:23;4.57;;;1.00;;
36195;SDS011;22237;51.974;4.616;2023-04-25T07:57:48;2.25;;;0.82;;
36195;SDS011;22237;51.974;4.616;2023-04-25T08:00:13;3.00;;;1.00;;
36195;SDS011;22237;51.974;4.616;2023-04-25T08:02:39;3.17;;;1.35;;
36195;SDS011;22237;51.974;4.616;2023-04-25T08:05:05;1.95;;;0.73;;
36195;SDS011;22237;51.974;4.616;2023-04-25T08:07:32;3.08;;;0.75;;
36195;SDS011;22237;51.974;4.616;2023-04-25T08:09:58;3.00;;;1.38;;
36195;SDS011;22237;51.974;4.616;2023-04-25T08:12:23;6.30;;;0.87;;
36195;SDS011;22237;51.974;4.616;2023-04-25T08:14:48;6.53;;;1.20;;
36195;SDS011;22237;51.974;4.616;2023-04-25T08:17:13;3.42;;;0.82;;
36195;SDS011;22237;51.974;4.616;2023-04-25T08:19:39;5.75;;;1.10;;
36195;SDS011;22237;51.974;4.616;2023-04-25T08:22:04;6.13;;;0.60;;
36195;SDS011;22237;51.974;4.616;2023-04-25T08:24:29;3.78;;;1.08;;
36195;SDS011;22237;51.974;4.616;2023-04-25T08:26:54;2.63;;;0.80;;
36195;SDS011;22237;51.974;4.616;2023-04-25T08:29:20;1.10;;;0.80;;
36195;SDS011;22237;51.974;4.616;2023-04-25T08:31:45;1.73;;;0.80;;
36195;SDS011;22237;51.974;4.616;2023-04-25T08:34:10;9.75;;;1.25;;
36195;SDS011;22237;51.974;4.616;2023-04-25T08:36:36;3.03;;;0.70;;
36195;SDS011;22237;51.974;4.616;2023-04-25T08:39:01;8.50;;;0.70;;
36195;SDS011;22237;51.974;4.616;2023-04-25T08:41:27;8.27;;;1.30;;
36195;SDS011;22237;51.974;4.616;2023-04-25T08:43:52;2.08;;;0.73;;
36195;SDS011;22237;51.974;4.616;2023-04-25T08:46:18;8.90;;;1.60;;
36195;SDS011;22237;51.974;4.616;2023-04-25T08:48:44;1.60;;;0.82;;
36195;SDS011;22237;51.974;4.616;2023-04-25T08:51:10;1.85;;;0.85;;
36195;SDS011;22237;51.974;4.616;2023-04-25T08:53:40;1.80;;;0.82;;
36195;SDS011;22237;51.974;4.616;2023-04-25T08:56:08;6.68;;;1.05;;
36195;SDS011;22237;51.974;4.616;2023-04-25T08:58:34;9.52;;;1.08;;
36195;SDS011;22237;51.974;4.616;2023-04-25T09:00:59;1.17;;;0.75;;
36195;SDS011;22237;51.974;4.616;2023-04-25T09:03:25;0.50;;;0.47;;
36195;SDS011;22237;51.974;4.616;2023-04-25T09:05:50;6.22;;;1.13;;
36195;SDS011;22237;51.974;4.616;2023-04-25T09:08:16;4.25;;;0.98;;
36195;SDS011;22237;51.974;4.616;2023-04-25T09:10:41;5.70;;;0.50;;
36195;SDS011;22237;51.974;4.616;2023-04-25T09:13:07;4.57;;;1.05;;
36195;SDS011;22237;51.974;4.616;2023-04-25T09:15:50;8.57;;;1.10;;
36195;SDS011;22237;51.974;4.616;2023-04-25T09:18:29;2.97;;;0.77;;
36195;SDS011;22237;51.974;4.616;2023-04-25T09:21:04;6.45;;;0.80;;
36195;SDS011;22237;51.974;4.616;2023-04-25T09:23:30;1.65;;;0.55;;
36195;SDS011;22237;51.974;4.616;2023-04-25T09:25:55;1.95;;;1.08;;
36195;SDS011;22237;51.974;4.616;2023-04-25T09:28:24;3.83;;;1.27;;
36195;SDS011;22237;51.974;4.616;2023-04-25T09:30:56;3.53;;;0.50;;
36195;SDS011;22237;51.974;4.616;2023-04-25T09:33:28;5.63;;;1.25;;
36195;SDS011;22237;51.974;4.616;2023-04-25T09:35:53;5.47;;;1.13;;
36195;SDS011;22237;51.974;4.616;2023-04-25T09:38:21;8.73;;;1.88;;
36195;SDS011;22237;51.974;4.616;2023-04-25T09:40:49;6.97;;;0.82;;
36195;SDS011;22237;51.974;4.616;2023-04-25T09:43:20;4.85;;;0.75;;
36195;SDS011;22237;51.974;4.616;2023-04-25T09:48:20;6.90;;;0.90;;
36195;SDS011;22237;51.974;4.616;2023-04-25T09:51:05;1.85;;;0.65;;
36195;SDS011;22237;51.974;4.616;2023-04-25T09:53:31;4.95;;;1.35;;
36195;SDS011;22237;51.974;4.616;2023-04-25T09:55:57;4.32;;;1.00;;
36195;SDS011;22237;51.974;4.616;2023-04-25T09:58:24;4.32;;;1.63;;
36195;SDS011;22237;51.974;4.616;2023-04-25T10:00:51;2.95;;;0.60;;
36195;SDS011;22237;51.974;4.616;2023-04-25T10:03:17;4.95;;;0.98;;
36195;SDS011;22237;51.974;4.616;2023-04-25T10:05:42;6.68;;;0.73;;
36195;SDS011;22237;51.974;4.616;2023-04-25T10:08:08;1.42;;;0.82;;
36195;SDS011;22237;51.974;4.616;2023-04-25T10:10:33;5.05;;;0.95;;
36195;SDS011;22237;51.974;4.616;2023-04-25T10:13:02;2.50;;;1.00;;
36195;SDS011;22237;51.974;4.616;2023-04-25T10:15:28;1.27;;;0.80;;
36195;SDS011;22237;51.974;4.616;2023-04-25T10:17:54;2.90;;;0.88;;
36195;SDS011;22237;51.974;4.616;2023-04-25T10:20:19;4.63;;;0.70;;
36195;SDS011;22237;51.974;4.616;2023-04-25T10:22:45;2.45;;;0.90;;
36195;SDS011;22237;51.974;4.616;2023-04-25T10:25:11;4.88;;;0.80;;
36195;SDS011;22237;51.974;4.616;2023-04-25T10:27:37;4.40;;;0.88;;
36195;SDS011;22237;51.974;4.616;2023-04-25T10:30:10;5.00;;;1.05;;
36195;SDS011;22237;51.974;4.616;2023-04-25T10:32:41;4.15;;;0.60;;
36195;SDS011;22237;51.974;4.616;2023-04-25T10:37:37;7.13;;;1.02;;
36195;SDS011;22237;51.974;4.616;2023-04-25T10:40:09;3.20;;;0.65;;
36195;SDS011;22237;51.974;4.616;2023-04-25T10:42:35;2.58;;;0.63;;
36195;SDS011;22237;51.974;4.616;2023-04-25T10:45:00;1.60;;;0.47;;
36195;SDS011;22237;51.974;4.616;2023-04-25T10:47:34;9.13;;;0.90;;
36195;SDS011;22237;51.974;4.616;2023-04-25T10:50:04;4.07;;;1.00;;
36195;SDS011;22237;51.974;4.616;2023-04-25T10:52:29;4.35;;;0.77;;
36195;SDS011;22237;51.974;4.616;2023-04-25T10:54:55;3.15;;;0.80;;
36195;SDS011;22237;51.974;4.616;2023-04-25T11:02:30;6.80;;;0.90;;
36195;SDS011;22237;51.974;4.616;2023-04-25T11:04:55;0.30;;;0.30;;
36195;SDS011;22237;51.974;4.616;2023-04-25T11:07:44;0.90;;;0.45;;
36195;SDS011;22237;51.974;4.616;2023-04-25T11:10:06;2.05;;;0.57;;
36195;SDS011;22237;51.974;4.616;2023-04-25T11:12:32;3.83;;;0.88;;
36195;SDS011;22237;51.974;4.616;2023-04-25T11:14:58;4.00;;;0.73;;
36195;SDS011;22237;51.974;4.616;2023-04-25T11:17:24;1.00;;;0.63;;
36195;SDS011;22237;51.974;4.616;2023-04-25T11:19:53;3.30;;;0.68;;
36195;SDS011;22237;51.974;4.616;2023-04-25T11:22:18;2.83;;;0.73;;
36195;SDS011;22237;51.974;4.616;2023-04-25T11:24:49;2.38;;;0.63;;
36195;SDS011;22237;51.974;4.616;2023-04-25T11:27:15;1.75;;;0.70;;
36195;SDS011;22237;51.974;4.616;2023-04-25T11:29:40;4.20;;;0.90;;
36195;SDS011;22237;51.974;4.616;2023-04-25T11:32:09;4.18;;;0.90;;
36195;SDS011;22237;51.974;4.616;2023-04-25T11:34:34;2.13;;;0.70;;
36195;SDS011;22237;51.974;4.616;2023-04-25T11:37:00;4.45;;;0.80;;
36195;SDS011;22237;51.974;4.616;2023-04-25T11:39:26;2.63;;;0.90;;
36195;SDS011;22237;51.974;4.616;2023-04-25T11:41:55;1.08;;;0.40;;
36195;SDS011;22237;51.974;4.616;2023-04-25T11:44:26;2.58;;;0.80;;
36195;SDS011;22237;51.974;4.616;2023-04-25T11:46:54;1.67;;;0.60;;
36195;SDS011;22237;51.974;4.616;2023-04-25T11:49:20;0.47;;;0.45;;
36195;SDS011;22237;51.974;4.616;2023-04-25T11:51:49;6.43;;;0.65;;
36195;SDS011;22237;51.974;4.616;2023-04-25T11:54:15;2.28;;;0.50;;
36195;SDS011;22237;51.974;4.616;2023-04-25T11:56:55;1.23;;;0.55;;
36195;SDS011;22237;51.974;4.616;2023-04-25T11:59:24;4.65;;;1.27;;
36195;SDS011;22237;51.974;4.616;2023-04-25T12:01:50;2.17;;;0.80;;
36195;SDS011;22237;51.974;4.616;2023-04-25T12:04:20;3.25;;;1.10;;
36195;SDS011;22237;51.974;4.616;2023-04-25T12:06:46;0.30;;;0.30;;
36195;SDS011;22237;51.974;4.616;2023-04-25T12:09:27;4.90;;;0.90;;
36195;SDS011;22237;51.974;4.616;2023-04-25T12:11:56;4.72;;;0.57;;
36195;SDS011;22237;51.974;4.616;2023-04-25T12:14:23;6.55;;;0.93;;
36195;SDS011;22237;51.974;4.616;2023-04-25T12:16:49;4.80;;;0.80;;
36195;SDS011;22237;51.974;4.616;2023-04-25T12:19:19;4.55;;;1.65;;
36195;SDS011;22237;51.974;4.616;2023-04-25T12:21:45;1.95;;;0.68;;
36195;SDS011;22237;51.974;4.616;2023-04-25T12:29:24;1.02;;;0.95;;
36195;SDS011;22237;51.974;4.616;2023-04-25T12:31:50;5.03;;;0.82;;
36195;SDS011;22237;51.974;4.616;2023-04-25T12:34:16;2.05;;;0.90;;
36195;SDS011;22237;51.974;4.616;2023-04-25T12:36:41;1.73;;;0.57;;
36195;SDS011;22237;51.974;4.616;2023-04-25T12:39:07;2.60;;;0.55;;
36195;SDS011;22237;51.974;4.616;2023-04-25T12:41:32;1.45;;;0.63;;
36195;SDS011;22237;51.974;4.616;2023-04-25T12:43:58;5.25;;;0.88;;
36195;SDS011;22237;51.974;4.616;2023-04-25T12:46:23;3.17;;;0.55;;
36195;SDS011;22237;51.974;4.616;2023-04-25T12:48:48;1.85;;;0.47;;
36195;SDS011;22237;51.974;4.616;2023-04-25T12:51:14;0.95;;;0.70;;
36195;SDS011;22237;51.974;4.616;2023-04-25T12:53:39;1.35;;;0.40;;
36195;SDS011;22237;51.974;4.616;2023-04-25T12:56:06;2.83;;;1.08;;
36195;SDS011;22237;51.974;4.616;2023-04-25T12:58:31;3.10;;;0.80;;
36195;SDS011;22237;51.974;4.616;2023-04-25T13:00:58;3.75;;;0.95;;
36195;SDS011;22237;51.974;4.616;2023-04-25T13:03:23;7.13;;;1.60;;
36195;SDS011;22237;51.974;4.616;2023-04-25T13:05:49;5.13;;;0.73;;
36195;SDS011;22237;51.974;4.616;2023-04-25T13:08:15;5.32;;;0.60;;
36195;SDS011;22237;51.974;4.616;2023-04-25T13:10:41;1.73;;;0.68;;
36195;SDS011;22237;51.974;4.616;2023-04-25T13:13:06;1.65;;;0.68;;
36195;SDS011;22237;51.974;4.616;2023-04-25T13:15:32;1.20;;;0.65;;
36195;SDS011;22237;51.974;4.616;2023-04-25T13:17:57;2.88;;;0.73;;
36195;SDS011;22237;51.974;4.616;2023-04-25T13:20:22;8.77;;;1.50;;
36195;SDS011;22237;51.974;4.616;2023-04-25T13:22:47;2.53;;;0.82;;
36195;SDS011;22237;51.974;4.616;2023-04-25T13:25:13;3.97;;;0.75;;
36195;SDS011;22237;51.974;4.616;2023-04-25T13:27:38;2.45;;;0.80;;
36195;SDS011;22237;51.974;4.616;2023-04-25T13:30:05;2.25;;;0.82;;
36195;SDS011;22237;51.974;4.616;2023-04-25T13:32:33;3.60;;;0.73;;
36195;SDS011;22237;51.974;4.616;2023-04-25T13:34:58;4.30;;;0.90;;
36195;SDS011;22237;51.974;4.616;2023-04-25T13:37:24;3.53;;;0.98;;
36195;SDS011;22237;51.974;4.616;2023-04-25T13:39:49;9.02;;;1.02;;
36195;SDS011;22237;51.974;4.616;2023-04-25T13:42:15;1.83;;;1.40;;
36195;SDS011;22237;51.974;4.616;2023-04-25T13:44:40;1.77;;;0.73;;
36195;SDS011;22237;51.974;4.616;2023-04-25T13:47:06;10.40;;;2.47;;
36195;SDS011;22237;51.974;4.616;2023-04-25T13:49:31;5.95;;;0.90;;
36195;SDS011;22237;51.974;4.616;2023-04-25T13:51:56;2.70;;;0.95;;
36195;SDS011;22237;51.974;4.616;2023-04-25T13:54:22;7.57;;;0.90;;
36195;SDS011;22237;51.974;4.616;2023-04-25T13:56:48;1.48;;;0.70;;
36195;SDS011;22237;51.974;4.616;2023-04-25T13:59:14;1.65;;;1.20;;
36195;SDS011;22237;51.974;4.616;2023-04-25T14:01:39;2.80;;;1.02;;
36195;SDS011;22237;51.974;4.616;2023-04-25T14:04:04;0.70;;;0.70;;
36195;SDS011;22237;51.974;4.616;2023-04-25T14:06:30;2.90;;;0.57;;
36195;SDS011;22237;51.974;4.616;2023-04-25T14:08:56;5.40;;;0.65;;
36195;SDS011;22237;51.974;4.616;2023-04-25T14:11:21;3.50;;;0.90;;
36195;SDS011;22237;51.974;4.616;2023-04-25T14:13:46;5.40;;;0.88;;
36195;SDS011;22237;51.974;4.616;2023-04-25T14:16:13;1.40;;;0.55;;
36195;SDS011;22237;51.974;4.616;2023-04-25T14:18:39;1.90;;;0.93;;
36195;SDS011;22237;51.974;4.616;2023-04-25T14:21:04;6.28;;;0.93;;
36195;SDS011;22237;51.974;4.616;2023-04-25T14:23:30;5.70;;;1.08;;
36195;SDS011;22237;51.974;4.616;2023-04-25T14:25:55;2.37;;;0.80;;
36195;SDS011;22237;51.974;4.616;2023-04-25T14:28:20;1.90;;;0.80;;
36195;SDS011;22237;51.974;4.616;2023-04-25T14:30:45;4.22;;;0.85;;
36195;SDS011;22237;51.974;4.616;2023-04-25T14:33:11;1.10;;;0.70;;
36195;SDS011;22237;51.974;4.616;2023-04-25T14:35:36;1.20;;;0.70;;
36195;SDS011;22237;51.974;4.616;2023-04-25T14:38:01;4.93;;;0.60;;
36195;SDS011;22237;51.974;4.616;2023-04-25T14:40:27;2.42;;;1.00;;
36195;SDS011;22237;51.974;4.616;2023-04-25T14:42:52;4.15;;;0.70;;
36195;SDS011;22237;51.974;4.616;2023-04-25T14:45:17;2.35;;;1.30;;
36195;SDS011;22237;51.974;4.616;2023-04-25T14:47:42;4.05;;;1.00;;
36195;SDS011;22237;51.974;4.616;2023-04-25T14:50:08;1.00;;;0.70;;
36195;SDS011;22237;51.974;4.616;2023-04-25T14:52:34;1.15;;;0.50;;